Kesley, Iowa
Current Conditions -  °F | °C
As of 7:55 AM on Friday 24 Oct 2014 (Local Time) from KIFA Reporting Station
Drizzle Drizzle  
Wind Chill: 44°   Ceiling: 200
Heat Index: 48°   Visibility: 0.25mi
Dew Point: 48°   Wind: 9mph
Humidity: 97%   Direction: 160°SSE
Pressure: 29.96"   Gusts: NA
Location:  42.66°N, 92.91°W
Report Text: KIFA 241255Z AUTO 16008KT 1/4SM +DZ OVC002 09/09 A2996 RMK AO2 T00910087
Loading
Personal Weather Stations






























Interactive Weather Map
Tropical Storm Tracking
New forecast layout! Learn more

10-Day Weather Forecast

Advertisements
Track Severe Weather on mobile